Time;durP1;ratioP1;P1;durP2;ratioP2;P2;SDS_P1;SDS_P2;PMS_P1;PMS_P2;Temp;Humidity;BMP_temperature;BMP_pressure;BME280_temperature;BME280_humidity;BME280_pressure;Samples;Min_cycle;Max_cycle;Signal;HPM_P1;HPM_P2
2023/02/07 00:01:44;;;;;;;8.07;7.37;;;1.60;37.10;;;;;;10475555;28;20236;-73
2023/02/07 00:06:48;;;;;;;8.00;7.20;;;1.60;37.00;;;;;;10477002;28;20251;-73
2023/02/07 00:11:51;;;;;;;8.30;7.43;;;1.60;37.00;;;;;;10476585;28;20239;-73
2023/02/07 00:16:55;;;;;;;8.90;7.27;;;1.60;36.90;;;;;;10476056;28;20224;-73
2023/02/07 00:21:59;;;;;;;8.30;7.50;;;1.60;36.90;;;;;;10479513;28;20712;-73
2023/02/07 00:27:02;;;;;;;7.60;6.80;;;1.60;36.90;;;;;;10476677;28;20231;-73
2023/02/07 00:32:06;;;;;;;8.87;7.17;;;1.60;36.90;;;;;;10475588;28;20232;-73
2023/02/07 00:37:10;;;;;;;8.93;8.03;;;1.60;36.90;;;;;;10475384;28;20224;-73
2023/02/07 00:42:13;;;;;;;7.73;7.00;;;1.60;36.70;;;;;;10478632;28;20224;-73
2023/02/07 00:47:16;;;;;;;8.90;6.63;;;1.60;36.70;;;;;;10476722;28;20285;-73
2023/02/07 00:52:21;;;;;;;7.87;6.97;;;1.60;36.80;;;;;;10480416;28;20229;-73
2023/02/07 00:57:24;;;;;;;8.73;7.30;;;1.60;36.70;;;;;;10477824;28;20322;-73
2023/02/07 01:02:27;;;;;;;8.43;7.43;;;1.60;36.70;;;;;;10478896;28;20232;-73
2023/02/07 01:07:33;;;;;;;7.93;7.13;;;1.50;36.60;;;;;;10470053;28;20232;-73
2023/02/07 01:12:36;;;;;;;7.87;6.90;;;1.50;36.50;;;;;;10475107;28;20239;-74
2023/02/07 01:17:39;;;;;;;9.93;6.90;;;1.50;36.50;;;;;;10477265;28;20239;-74
2023/02/07 01:22:44;;;;;;;7.33;6.57;;;1.40;36.50;;;;;;10476997;28;20232;-72
2023/02/07 01:27:47;;;;;;;7.60;6.53;;;1.40;36.40;;;;;;10478602;28;20277;-73
2023/02/07 01:32:50;;;;;;;7.60;6.80;;;1.40;36.40;;;;;;10484495;28;20350;-73
2023/02/07 01:37:57;;;;;;;7.63;6.93;;;1.30;36.40;;;;;;10487187;28;20228;-73
2023/02/07 01:43:00;;;;;;;7.97;6.90;;;1.30;36.50;;;;;;10483055;28;21182;-73
2023/02/07 01:48:08;;;;;;;7.50;6.70;;;1.20;36.50;;;;;;10476901;28;20248;-73
2023/02/07 01:53:15;;;;;;;7.17;6.47;;;1.20;36.60;;;;;;10486135;28;20650;-73
2023/02/07 01:58:19;;;;;;;6.80;6.10;;;1.20;36.60;;;;;;10482603;28;20232;-73
2023/02/07 02:03:22;;;;;;;7.17;6.47;;;1.30;36.70;;;;;;10482817;28;20239;-73
2023/02/07 02:08:27;;;;;;;7.17;6.43;;;1.20;36.50;;;;;;10480347;28;20752;-73
2023/02/07 02:13:37;;;;;;;7.50;6.50;;;1.20;36.50;;;;;;10479209;28;20274;-72
2023/02/07 02:18:53;;;;;;;6.80;5.87;;;1.20;36.50;;;;;;10481952;28;20237;-72
2023/02/07 02:24:34;;;;;;;6.50;5.90;;;1.10;36.30;;;;;;10478113;28;20732;-72
2023/02/07 02:30:25;;;;;;;6.97;6.27;;;1.20;36.50;;;;;;10479768;28;20220;-72
2023/02/07 02:35:35;;;;;;;6.90;6.03;;;1.10;36.20;;;;;;10483184;28;20700;-72
2023/02/07 02:40:46;;;;;;;6.63;6.00;;;1.20;36.40;;;;;;10481098;28;20266;-72
2023/02/07 02:45:54;;;;;;;7.13;6.43;;;1.00;36.20;;;;;;10482201;28;20240;-73
2023/02/07 02:50:58;;;;;;;7.57;6.27;;;1.00;36.20;;;;;;10482900;28;20229;-73
2023/02/07 02:56:21;;;;;;;8.93;6.50;;;1.00;36.20;;;;;;10482851;28;20224;-73
2023/02/07 03:01:29;;;;;;;6.77;6.10;;;0.90;36.00;;;;;;10479939;28;20798;-73
2023/02/07 03:06:46;;;;;;;6.87;6.10;;;0.90;36.10;;;;;;10480573;28;20290;-72
2023/02/07 03:11:57;;;;;;;7.80;5.83;;;0.90;36.00;;;;;;10478655;28;20247;-73
2023/02/07 03:17:13;;;;;;;5.83;5.27;;;0.90;35.80;;;;;;10479113;28;20230;-72
2023/02/07 03:22:20;;;;;;;6.40;4.87;;;0.90;35.80;;;;;;10480744;28;20224;-72
2023/02/07 03:27:25;;;;;;;5.93;5.33;;;0.80;35.80;;;;;;10477207;28;20250;-73
2023/02/07 03:32:34;;;;;;;7.00;6.07;;;0.70;35.90;;;;;;10478103;28;20233;-72
2023/02/07 03:37:42;;;;;;;7.63;6.13;;;0.70;35.80;;;;;;10480938;28;20233;-72
2023/02/07 03:42:49;;;;;;;5.93;5.33;;;0.80;35.90;;;;;;10481362;28;20240;-73
2023/02/07 03:47:52;;;;;;;6.30;5.70;;;0.60;35.80;;;;;;10480696;28;20243;-72
2023/02/07 03:52:57;;;;;;;5.63;5.13;;;0.60;35.80;;;;;;10475457;28;20236;-72
2023/02/07 03:58:00;;;;;;;5.70;5.13;;;0.60;35.80;;;;;;10479585;28;20241;-72
2023/02/07 04:03:04;;;;;;;7.83;6.07;;;0.50;35.80;;;;;;10476902;28;20224;-72
2023/02/07 04:08:09;;;;;;;7.20;5.57;;;0.50;35.80;;;;;;10482901;28;20239;-72
2023/02/07 04:13:12;;;;;;;7.43;5.83;;;0.50;35.80;;;;;;10476420;28;20232;-72
2023/02/07 04:18:15;;;;;;;6.67;5.80;;;0.40;35.80;;;;;;10477969;28;20274;-72
2023/02/07 04:23:20;;;;;;;6.63;5.70;;;0.40;35.80;;;;;;10479132;28;21014;-72
2023/02/07 04:28:23;;;;;;;6.50;5.57;;;0.40;35.80;;;;;;10482121;28;20246;-72
2023/02/07 04:33:26;;;;;;;7.63;5.67;;;0.40;35.90;;;;;;10481099;28;20239;-73
2023/02/07 04:38:31;;;;;;;6.83;5.67;;;0.40;35.90;;;;;;10479886;28;20227;-73
2023/02/07 04:43:36;;;;;;;6.50;5.77;;;0.30;35.70;;;;;;10474958;28;20245;-73
2023/02/07 04:48:39;;;;;;;6.23;5.63;;;0.40;35.70;;;;;;10475634;28;20232;-73
2023/02/07 04:53:44;;;;;;;5.83;5.23;;;0.30;35.80;;;;;;10475230;28;20242;-73
2023/02/07 04:58:47;;;;;;;5.57;4.73;;;0.30;35.80;;;;;;10478314;28;20254;-72
2023/02/07 05:03:51;;;;;;;6.20;5.30;;;0.30;35.80;;;;;;10480608;28;20243;-72
2023/02/07 05:08:55;;;;;;;6.37;5.47;;;0.20;35.70;;;;;;10478555;28;20254;-73
2023/02/07 05:13:58;;;;;;;6.03;5.43;;;0.20;35.60;;;;;;10486851;28;20243;-72
2023/02/07 05:19:01;;;;;;;5.97;5.37;;;0.20;35.60;;;;;;10483421;28;20231;-73
2023/02/07 05:24:07;;;;;;;7.23;5.90;;;0.10;35.50;;;;;;10477326;28;20236;-73
2023/02/07 05:29:10;;;;;;;5.93;5.33;;;0.10;35.50;;;;;;10484888;28;20228;-73
2023/02/07 05:34:13;;;;;;;6.00;5.40;;;0.00;35.50;;;;;;10481264;28;20236;-73
2023/02/07 05:39:17;;;;;;;7.33;5.77;;;0.00;35.50;;;;;;10481897;28;20756;-73
2023/02/07 05:44:20;;;;;;;6.07;5.47;;;-0.10;35.40;;;;;;10481884;28;20220;-73
2023/02/07 05:49:23;;;;;;;6.30;5.27;;;-0.10;35.60;;;;;;10485407;28;20236;-73
2023/02/07 05:54:28;;;;;;;7.07;5.97;;;-0.10;35.80;;;;;;10478136;28;20237;-73
2023/02/07 05:59:31;;;;;;;6.53;5.87;;;-0.20;35.60;;;;;;10483799;28;20236;-74
2023/02/07 06:04:35;;;;;;;6.17;5.57;;;-0.20;35.50;;;;;;10480525;28;20353;-72
2023/02/07 06:09:39;;;;;;;6.93;5.03;;;-0.20;35.50;;;;;;10483120;28;20300;-73
2023/02/07 06:14:42;;;;;;;8.33;5.67;;;-0.30;35.40;;;;;;10482303;28;20235;-72
2023/02/07 06:19:46;;;;;;;5.83;5.07;;;-0.30;35.50;;;;;;10483567;28;20243;-74
2023/02/07 06:24:50;;;;;;;5.87;5.27;;;-0.40;35.40;;;;;;10477112;28;20244;-75
2023/02/07 06:29:53;;;;;;;6.27;5.27;;;-0.40;36.70;;;;;;10480971;28;20231;-75
2023/02/07 06:34:56;;;;;;;6.90;5.83;;;-0.30;36.70;;;;;;10477857;28;20758;-75
2023/02/07 06:40:02;;;;;;;7.13;5.57;;;-0.30;36.40;;;;;;10478617;28;20703;-75
2023/02/07 06:45:05;;;;;;;5.73;5.17;;;-0.30;36.10;;;;;;10481801;28;20715;-74
2023/02/07 06:50:09;;;;;;;5.70;5.10;;;-0.30;35.90;;;;;;10479947;28;20243;-74
2023/02/07 06:55:13;;;;;;;6.17;5.43;;;-0.30;35.80;;;;;;10483981;28;20799;-75
2023/02/07 07:00:17;;;;;;;6.70;5.73;;;-0.40;35.80;;;;;;10482269;28;20728;-74
2023/02/07 07:05:20;;;;;;;6.93;5.27;;;-0.40;35.70;;;;;;10482985;28;20225;-75
2023/02/07 07:10:25;;;;;;;6.60;5.93;;;-0.40;35.70;;;;;;10481498;28;20610;-75
2023/02/07 07:15:28;;;;;;;6.57;5.97;;;-0.50;35.80;;;;;;10480763;28;20238;-75
2023/02/07 07:20:31;;;;;;;6.30;5.07;;;-0.50;35.70;;;;;;10483922;28;20309;-74
2023/02/07 07:25:36;;;;;;;7.97;5.80;;;-0.50;35.90;;;;;;10474602;28;20236;-75
2023/02/07 07:30:40;;;;;;;7.97;5.80;;;-0.50;35.90;;;;;;10481863;28;20338;-75
2023/02/07 07:35:43;;;;;;;7.07;5.73;;;-0.60;35.90;;;;;;10481988;28;20335;-75
2023/02/07 07:40:48;;;;;;;7.90;6.17;;;-0.60;35.90;;;;;;10478402;28;20802;-75
2023/02/07 07:45:52;;;;;;;8.27;6.17;;;-0.60;36.10;;;;;;10471230;28;20712;-75
2023/02/07 07:50:56;;;;;;;8.10;6.30;;;-0.60;36.20;;;;;;10481162;28;20601;-75
2023/02/07 07:56:00;;;;;;;7.60;6.57;;;-0.60;36.40;;;;;;10476057;28;20259;-75
2023/02/07 08:01:03;;;;;;;8.30;6.57;;;-0.50;36.70;;;;;;10462803;28;20224;-74
2023/02/07 08:06:08;;;;;;;8.07;7.23;;;-0.50;36.80;;;;;;10466623;28;20229;-75
2023/02/07 08:11:12;;;;;;;8.47;7.13;;;-0.40;36.90;;;;;;10466563;28;20677;-73
2023/02/07 08:16:17;;;;;;;10.40;7.20;;;-0.30;37.20;;;;;;10467490;28;20255;-73
2023/02/07 08:21:20;;;;;;;8.60;7.57;;;-0.20;37.40;;;;;;10465367;28;20231;-73
2023/02/07 08:26:24;;;;;;;9.80;7.37;;;-0.10;37.50;;;;;;10466343;28;20251;-74
2023/02/07 08:31:28;;;;;;;9.57;7.27;;;0.10;37.60;;;;;;10462953;28;20704;-74
2023/02/07 08:36:31;;;;;;;8.93;7.07;;;0.30;37.80;;;;;;10467148;28;20232;-74
2023/02/07 08:41:35;;;;;;;10.07;7.03;;;0.40;37.90;;;;;;10468317;28;20848;-74
2023/02/07 08:46:39;;;;;;;7.73;6.93;;;0.60;37.90;;;;;;10469017;28;20240;-74
2023/02/07 08:51:42;;;;;;;9.53;7.70;;;0.80;38.30;;;;;;10470647;28;20246;-73
2023/02/07 08:56:47;;;;;;;8.33;7.20;;;1.00;38.20;;;;;;10468300;28;20228;-73
2023/02/07 09:01:50;;;;;;;8.60;7.57;;;1.30;38.10;;;;;;10468973;28;20232;-74
2023/02/07 09:06:53;;;;;;;8.13;7.30;;;1.40;37.80;;;;;;10473244;28;20798;-73
2023/02/07 09:11:58;;;;;;;8.63;7.60;;;1.70;37.80;;;;;;10472617;28;20838;-73
2023/02/07 09:17:01;;;;;;;8.37;7.53;;;1.90;37.60;;;;;;10469836;28;20235;-74
2023/02/07 09:22:05;;;;;;;10.17;8.17;;;2.10;37.60;;;;;;10466483;28;20243;-73
2023/02/07 09:27:10;;;;;;;9.07;8.17;;;2.50;37.20;;;;;;10465635;28;20282;-73
2023/02/07 09:32:13;;;;;;;9.87;8.47;;;2.50;36.70;;;;;;10472148;28;20465;-69
2023/02/07 09:37:17;;;;;;;9.17;8.17;;;2.70;36.90;;;;;;10470952;28;20228;-69
2023/02/07 09:42:28;;;;;;;8.47;7.47;;;2.90;36.80;;;;;;10466410;28;20232;-69
2023/02/07 09:47:34;;;;;;;9.77;7.83;;;3.00;36.20;;;;;;10475006;28;20235;-68
2023/02/07 09:52:44;;;;;;;9.93;7.80;;;3.20;36.40;;;;;;10482243;28;20709;-69
2023/02/07 09:57:52;;;;;;;9.40;7.60;;;3.40;36.00;;;;;;10483377;28;20236;-69
2023/02/07 10:03:01;;;;;;;8.63;7.43;;;3.50;35.60;;;;;;10481180;28;20232;-68
2023/02/07 10:08:04;;;;;;;8.60;7.70;;;3.80;35.80;;;;;;10475745;28;20225;-70
2023/02/07 10:13:35;;;;;;;7.80;6.90;;;3.90;35.90;;;;;;10482461;28;20235;-70
2023/02/07 10:18:44;;;;;;;8.30;7.40;;;4.10;35.60;;;;;;10507224;22;20723;-72
2023/02/07 10:23:58;;;;;;;7.50;6.70;;;4.30;35.90;;;;;;10429540;28;20236;-70
2023/02/07 10:29:34;;;;;;;7.30;6.60;;;4.50;34.60;;;;;;10430021;28;20221;-70
2023/02/07 10:34:41;;;;;;;7.53;6.73;;;4.60;33.60;;;;;;10393131;28;20228;-71
2023/02/07 10:39:48;;;;;;;7.13;6.40;;;4.70;34.00;;;;;;10407723;28;20237;-72
2023/02/07 10:44:53;;;;;;;7.27;6.57;;;4.80;34.60;;;;;;10412418;28;20252;-72
2023/02/07 10:49:58;;;;;;;8.10;6.93;;;4.90;34.40;;;;;;10409559;28;20237;-72
2023/02/07 10:55:03;;;;;;;8.20;6.97;;;5.00;34.20;;;;;;10416249;28;20226;-72
2023/02/07 11:00:23;;;;;;;7.57;6.70;;;5.10;33.30;;;;;;10410092;28;20225;-72
2023/02/07 11:05:32;;;;;;;8.50;7.60;;;5.10;32.70;;;;;;10410415;28;20228;-72
2023/02/07 11:10:37;;;;;;;9.53;7.37;;;5.20;33.70;;;;;;10414589;28;20232;-72
2023/02/07 11:15:50;;;;;;;7.87;7.17;;;5.40;33.80;;;;;;10407776;28;20611;-73
2023/02/07 11:20:55;;;;;;;9.13;7.70;;;5.50;32.60;;;;;;10403391;28;20264;-72
2023/02/07 11:25:58;;;;;;;9.23;6.70;;;5.60;33.90;;;;;;10407691;28;21129;-72
2023/02/07 11:31:06;;;;;;;7.60;6.80;;;5.70;34.20;;;;;;10404011;28;20233;-72
2023/02/07 11:36:22;;;;;;;7.63;6.77;;;5.80;33.30;;;;;;10399040;28;20245;-69
2023/02/07 11:41:27;;;;;;;7.73;6.37;;;5.90;31.10;;;;;;10416988;28;20236;-69
2023/02/07 11:46:35;;;;;;;6.47;5.80;;;6.00;32.50;;;;;;10410280;28;20229;-70
2023/02/07 11:51:38;;;;;;;6.50;5.80;;;6.00;30.90;;;;;;10411982;28;20721;-70
2023/02/07 11:56:44;;;;;;;6.53;5.90;;;6.00;32.30;;;;;;10417011;28;20225;-69
2023/02/07 12:01:52;;;;;;;6.13;5.53;;;5.90;31.50;;;;;;10404860;28;20709;-70
2023/02/07 12:07:01;;;;;;;6.57;5.87;;;5.90;31.50;;;;;;10409454;28;20315;-69
2023/02/07 12:12:11;;;;;;;6.80;6.10;;;5.90;31.30;;;;;;10407819;28;20232;-69
2023/02/07 12:17:20;;;;;;;7.23;6.53;;;6.00;30.90;;;;;;10409344;28;20233;-70
2023/02/07 12:22:28;;;;;;;6.67;5.97;;;5.90;30.60;;;;;;10409302;28;20240;-70
2023/02/07 12:27:38;;;;;;;6.70;6.10;;;6.00;31.60;;;;;;10415330;28;20283;-69
2023/02/07 12:32:51;;;;;;;6.43;5.83;;;6.10;31.10;;;;;;10411120;28;20241;-69
2023/02/07 12:38:00;;;;;;;5.87;5.37;;;6.20;30.60;;;;;;10413586;28;20234;-70
2023/02/07 12:43:10;;;;;;;6.33;5.73;;;6.30;30.70;;;;;;10412117;28;20230;-69
2023/02/07 12:48:19;;;;;;;5.77;5.17;;;6.30;31.00;;;;;;10403879;28;20720;-70
2023/02/07 12:53:37;;;;;;;6.37;5.77;;;6.40;30.50;;;;;;10411389;28;20243;-73
2023/02/07 12:58:49;;;;;;;8.30;5.43;;;6.40;29.70;;;;;;10407189;28;20236;-73
2023/02/07 13:04:25;;;;;;;5.90;5.33;;;6.50;30.00;;;;;;10399572;28;20230;-74
2023/02/07 13:09:36;;;;;;;5.83;5.30;;;6.50;28.10;;;;;;10386436;28;21050;-73
2023/02/07 13:14:54;;;;;;;5.80;5.20;;;6.50;30.30;;;;;;10401593;28;20221;-73
2023/02/07 13:20:05;;;;;;;5.43;4.87;;;6.50;29.80;;;;;;10400003;28;20237;-73
2023/02/07 13:25:19;;;;;;;5.13;4.63;;;6.50;29.90;;;;;;10417218;28;20229;-73
2023/02/07 13:30:23;;;;;;;4.80;4.40;;;6.50;29.40;;;;;;10412252;28;20813;-73
2023/02/07 13:35:32;;;;;;;5.13;4.70;;;6.60;30.70;;;;;;10419214;28;20355;-73
2023/02/07 13:40:47;;;;;;;4.57;4.17;;;6.70;29.70;;;;;;10421232;28;20233;-73
2023/02/07 13:45:58;;;;;;;5.20;4.70;;;6.70;29.00;;;;;;10413635;28;20752;-73
2023/02/07 13:51:11;;;;;;;4.80;4.23;;;6.70;29.40;;;;;;10415081;28;20233;-73
2023/02/07 14:01:37;;;;;;;5.60;4.67;;;6.80;30.00;;;;;;10410817;28;20229;-71
2023/02/07 14:06:42;;;;;;;6.20;4.50;;;6.80;30.20;;;;;;10402978;28;20252;-71
2023/02/07 14:11:49;;;;;;;5.17;4.50;;;6.80;30.00;;;;;;10409237;28;20226;-71
2023/02/07 14:16:55;;;;;;;5.50;4.30;;;6.80;28.80;;;;;;10408366;28;20226;-71
2023/02/07 14:22:14;;;;;;;4.97;3.93;;;6.80;29.60;;;;;;10409566;28;20333;-71
2023/02/07 14:27:33;;;;;;;5.07;3.97;;;6.80;28.40;;;;;;10410925;28;20213;-72
2023/02/07 14:32:42;;;;;;;4.13;3.57;;;6.80;27.70;;;;;;10405789;28;20236;-71
2023/02/07 14:37:50;;;;;;;4.17;3.77;;;6.80;28.80;;;;;;10395727;28;20256;-71
2023/02/07 14:43:00;;;;;;;6.00;4.00;;;6.80;28.70;;;;;;10409099;28;20229;-71
2023/02/07 14:48:04;;;;;;;4.80;4.20;;;6.80;28.50;;;;;;10409450;28;20225;-71
2023/02/07 14:53:14;;;;;;;4.23;3.80;;;6.80;29.30;;;;;;10415120;28;20225;-72
2023/02/07 14:58:27;;;;;;;6.13;4.70;;;6.80;28.20;;;;;;10416716;28;20229;-71
2023/02/07 15:03:31;;;;;;;4.67;4.27;;;6.80;28.30;;;;;;10414759;28;20245;-71
2023/02/07 15:08:37;;;;;;;5.47;4.70;;;6.80;29.70;;;;;;10407671;28;20258;-71
2023/02/07 15:13:44;;;;;;;5.43;4.87;;;6.80;29.70;;;;;;10409757;28;20240;-71
2023/02/07 15:18:51;;;;;;;5.40;4.90;;;6.70;29.20;;;;;;10406102;28;20653;-71
2023/02/07 15:23:58;;;;;;;4.80;4.30;;;6.70;29.10;;;;;;10412002;28;20237;-71
2023/02/07 15:29:05;;;;;;;4.77;4.37;;;6.60;29.30;;;;;;10416816;28;20233;-70
2023/02/07 15:34:15;;;;;;;5.53;4.90;;;6.60;29.40;;;;;;10416703;28;20774;-70
2023/02/07 15:39:21;;;;;;;5.17;4.27;;;6.60;28.90;;;;;;10405386;28;20232;-70
2023/02/07 15:44:28;;;;;;;4.73;4.33;;;6.60;28.90;;;;;;10406659;28;20240;-70
2023/02/07 15:49:34;;;;;;;5.00;4.40;;;6.50;28.50;;;;;;10411843;28;20221;-70
2023/02/07 15:54:39;;;;;;;4.60;4.20;;;6.40;28.70;;;;;;10408236;28;20623;-70
2023/02/07 15:59:44;;;;;;;4.77;4.37;;;6.40;29.00;;;;;;10408461;28;20572;-70
2023/02/07 16:04:47;;;;;;;5.83;4.63;;;6.30;29.00;;;;;;10411118;28;20239;-74
2023/02/07 16:09:52;;;;;;;6.07;5.47;;;6.30;29.40;;;;;;10399478;28;20236;-69
2023/02/07 16:14:57;;;;;;;7.17;4.07;;;6.30;30.00;;;;;;10404786;28;20232;-72
2023/02/07 16:20:00;;;;;;;4.93;4.03;;;6.40;31.30;;;;;;10405373;28;20237;-69
2023/02/07 16:25:04;;;;;;;5.10;4.00;;;6.50;31.90;;;;;;10408511;28;20791;-68
2023/02/07 16:30:14;;;;;;;5.40;3.97;;;6.70;30.90;;;;;;10412765;28;20540;-68
2023/02/07 16:35:21;;;;;;;6.50;3.70;;;6.80;29.20;;;;;;10413225;28;20234;-72
2023/02/07 16:40:25;;;;;;;5.97;5.07;;;6.80;32.40;;;;;;10408346;28;20325;-68
2023/02/07 16:45:31;;;;;;;5.53;4.77;;;6.80;30.60;;;;;;10421939;28;20238;-70
2023/02/07 16:50:34;;;;;;;4.53;4.13;;;6.90;29.90;;;;;;10410580;28;20229;-70
2023/02/07 16:55:39;;;;;;;4.20;3.80;;;6.80;30.40;;;;;;10412158;28;20232;-69
2023/02/07 17:00:44;;;;;;;4.90;4.40;;;6.70;29.40;;;;;;10419723;28;20229;-70
2023/02/07 17:05:47;;;;;;;4.67;3.80;;;6.60;29.40;;;;;;10424226;28;20237;-70
2023/02/07 17:10:53;;;;;;;3.90;3.50;;;6.50;29.60;;;;;;10409682;28;20763;-70
2023/02/07 17:15:58;;;;;;;4.10;3.70;;;6.30;29.40;;;;;;10415930;28;20244;-70
2023/02/07 17:21:02;;;;;;;4.30;3.90;;;6.20;29.60;;;;;;10412868;28;20641;-71
2023/02/07 17:26:06;;;;;;;5.27;4.77;;;6.10;29.80;;;;;;10417704;28;20225;-70
2023/02/07 17:31:12;;;;;;;7.63;5.63;;;6.00;29.70;;;;;;10417107;28;20229;-70
2023/02/07 17:36:16;;;;;;;26.60;18.03;;;5.90;29.30;;;;;;10413882;28;20271;-70
2023/02/07 17:41:20;;;;;;;29.57;19.93;;;5.80;29.70;;;;;;10406182;28;20240;-71
2023/02/07 17:46:26;;;;;;;32.07;22.07;;;5.60;29.70;;;;;;10414993;28;20329;-70
2023/02/07 17:51:29;;;;;;;23.67;16.53;;;5.50;29.50;;;;;;10415698;28;20236;-70
2023/02/07 17:56:33;;;;;;;27.00;17.63;;;5.40;29.70;;;;;;10418869;28;20256;-71
2023/02/07 18:01:37;;;;;;;20.17;15.50;;;5.30;29.80;;;;;;10411764;28;20241;-70
2023/02/07 18:06:41;;;;;;;16.87;12.10;;;5.20;29.80;;;;;;10416855;28;20232;-70
2023/02/07 18:11:44;;;;;;;15.40;11.70;;;5.10;29.90;;;;;;10421816;28;20618;-71
2023/02/07 18:16:49;;;;;;;12.53;10.00;;;5.00;29.90;;;;;;10412446;28;20233;-71
2023/02/07 18:21:52;;;;;;;10.40;8.90;;;5.00;29.80;;;;;;10416417;28;20245;-70
2023/02/07 18:26:55;;;;;;;13.90;9.67;;;4.90;30.00;;;;;;10413342;28;20569;-70
2023/02/07 18:31:59;;;;;;;12.33;9.57;;;4.80;30.00;;;;;;10418024;28;20245;-70
2023/02/07 18:37:03;;;;;;;12.43;10.13;;;4.70;29.70;;;;;;10421765;28;20305;-70
2023/02/07 18:42:06;;;;;;;12.23;10.93;;;4.60;29.90;;;;;;10418373;28;20224;-70
2023/02/07 18:47:10;;;;;;;12.90;11.60;;;4.40;29.70;;;;;;10418227;28;20283;-70
2023/02/07 18:52:14;;;;;;;14.43;10.50;;;4.50;29.80;;;;;;10418690;28;20736;-69
2023/02/07 18:57:17;;;;;;;19.37;15.77;;;4.20;29.80;;;;;;10416379;28;20236;-70
2023/02/07 19:02:23;;;;;;;17.07;13.87;;;4.00;29.70;;;;;;10423049;28;20229;-70
2023/02/07 19:07:26;;;;;;;16.27;12.20;;;3.90;29.70;;;;;;10418015;28;20238;-70
2023/02/07 19:12:29;;;;;;;14.00;11.57;;;3.70;29.80;;;;;;10416687;28;20255;-70
2023/02/07 19:17:35;;;;;;;23.77;15.93;;;3.60;30.00;;;;;;10417323;28;20225;-71
2023/02/07 19:22:38;;;;;;;21.47;15.97;;;3.70;30.00;;;;;;10386242;28;20228;-71
2023/02/07 19:27:41;;;;;;;18.33;14.47;;;3.60;30.80;;;;;;10395132;28;20783;-71
2023/02/07 19:32:45;;;;;;;19.60;13.77;;;3.50;30.10;;;;;;10393786;28;20236;-71
2023/02/07 19:37:49;;;;;;;17.17;13.00;;;3.50;30.20;;;;;;10398085;28;20237;-71
2023/02/07 19:42:52;;;;;;;17.53;14.13;;;3.50;30.20;;;;;;10400677;28;20448;-71
2023/02/07 19:47:56;;;;;;;18.03;13.13;;;3.40;30.00;;;;;;10397459;28;20237;-71
2023/02/07 19:52:59;;;;;;;12.67;10.80;;;3.40;30.00;;;;;;10396896;28;20234;-68
2023/02/07 19:58:02;;;;;;;12.77;10.90;;;3.30;30.10;;;;;;10411623;28;20280;-68
2023/02/07 20:03:07;;;;;;;14.20;11.03;;;3.20;30.20;;;;;;10405952;28;20647;-68
2023/02/07 20:08:11;;;;;;;13.57;10.70;;;3.20;30.10;;;;;;10408450;28;20730;-68
2023/02/07 20:13:15;;;;;;;15.13;10.83;;;3.10;30.20;;;;;;10406197;28;20604;-68
2023/02/07 20:18:19;;;;;;;14.13;10.00;;;3.00;30.20;;;;;;10407566;28;20231;-68
2023/02/07 20:23:22;;;;;;;15.37;10.23;;;3.10;30.00;;;;;;10397630;28;20787;-68
2023/02/07 20:28:28;;;;;;;16.53;12.50;;;2.90;30.10;;;;;;10409212;28;20226;-68
2023/02/07 20:33:34;;;;;;;18.83;13.63;;;2.70;30.10;;;;;;10405071;28;20249;-68
2023/02/07 20:38:38;;;;;;;16.10;12.30;;;2.50;30.10;;;;;;10399763;28;20603;-68
2023/02/07 20:43:42;;;;;;;13.87;10.97;;;2.50;30.40;;;;;;10399608;28;20654;-68
2023/02/07 20:48:46;;;;;;;20.00;12.90;;;2.40;30.50;;;;;;10402178;28;20725;-68
2023/02/07 20:53:50;;;;;;;19.70;12.60;;;2.40;30.50;;;;;;10400143;28;20260;-68
2023/02/07 20:58:54;;;;;;;17.50;12.33;;;2.30;30.50;;;;;;10409538;28;20617;-70
2023/02/07 21:04:01;;;;;;;15.70;10.80;;;2.30;30.40;;;;;;10400825;28;20741;-70
2023/02/07 21:09:06;;;;;;;14.40;10.70;;;2.20;30.30;;;;;;10405247;28;20843;-70
2023/02/07 21:14:12;;;;;;;13.30;11.10;;;2.20;30.50;;;;;;10405047;28;20245;-70
2023/02/07 21:19:17;;;;;;;14.27;11.17;;;2.10;30.60;;;;;;10396210;28;20233;-71
2023/02/07 21:24:20;;;;;;;15.23;12.20;;;2.10;30.60;;;;;;10406449;28;20253;-70
2023/02/07 21:29:24;;;;;;;13.67;10.97;;;2.10;30.80;;;;;;10408387;28;20800;-71
2023/02/07 21:34:29;;;;;;;13.40;10.67;;;2.00;30.70;;;;;;10407629;28;20237;-71
2023/02/07 21:39:32;;;;;;;15.67;12.07;;;2.00;30.80;;;;;;10409119;28;20241;-70
2023/02/07 21:44:35;;;;;;;23.83;13.57;;;1.90;30.70;;;;;;10411043;28;20654;-71
2023/02/07 21:49:40;;;;;;;24.13;13.73;;;1.90;30.80;;;;;;10423200;28;20237;-71
2023/02/07 21:54:43;;;;;;;18.37;11.87;;;1.90;30.90;;;;;;10415890;28;20221;-71
2023/02/07 21:59:46;;;;;;;16.77;10.73;;;1.80;30.90;;;;;;10416297;28;20746;-70
2023/02/07 22:04:51;;;;;;;12.53;9.80;;;1.70;30.90;;;;;;10409799;28;20707;-71
2023/02/07 22:09:54;;;;;;;10.03;8.97;;;1.70;30.80;;;;;;10414431;28;20237;-71
2023/02/07 22:14:57;;;;;;;12.40;10.20;;;1.60;30.90;;;;;;10424684;28;20255;-71
2023/02/07 22:20:01;;;;;;;12.67;10.07;;;1.60;30.90;;;;;;10416622;28;20236;-70
2023/02/07 22:25:05;;;;;;;10.87;9.77;;;1.60;31.00;;;;;;10412662;28;20228;-71
2023/02/07 22:30:10;;;;;;;13.80;10.07;;;1.50;31.00;;;;;;10417762;28;20672;-70
2023/02/07 22:35:14;;;;;;;13.93;11.17;;;1.50;31.00;;;;;;10420109;28;20602;-70
2023/02/07 22:40:18;;;;;;;14.20;10.10;;;1.40;30.90;;;;;;10414141;28;20313;-70
2023/02/07 22:45:21;;;;;;;12.57;10.93;;;1.40;30.90;;;;;;10416890;28;20607;-70
2023/02/07 22:50:27;;;;;;;14.07;10.60;;;1.30;30.80;;;;;;10421088;28;20273;-71
2023/02/07 22:55:31;;;;;;;13.03;10.67;;;1.20;30.90;;;;;;10414672;28;20233;-70
2023/02/07 23:00:34;;;;;;;13.87;10.23;;;1.20;31.00;;;;;;10420048;28;20237;-70
2023/02/07 23:05:39;;;;;;;12.30;9.73;;;1.10;31.10;;;;;;10417132;28;20237;-70
2023/02/07 23:10:42;;;;;;;13.37;9.20;;;1.10;31.10;;;;;;10424535;28;20233;-71
2023/02/07 23:15:46;;;;;;;13.00;9.37;;;1.10;31.10;;;;;;10418614;28;20282;-71
2023/02/07 23:20:51;;;;;;;15.80;11.70;;;1.00;31.10;;;;;;10418093;28;20240;-70
2023/02/07 23:25:56;;;;;;;16.33;10.73;;;1.00;31.10;;;;;;10416780;28;20237;-70
2023/02/07 23:30:59;;;;;;;16.60;11.43;;;0.90;31.00;;;;;;10407841;28;20252;-70
2023/02/07 23:36:05;;;;;;;15.60;11.43;;;1.00;31.10;;;;;;10415330;28;20304;-70
2023/02/07 23:41:09;;;;;;;18.70;11.83;;;0.80;31.00;;;;;;10420173;28;20614;-70
2023/02/07 23:46:14;;;;;;;14.70;10.43;;;0.70;30.90;;;;;;10413909;28;20230;-70
2023/02/07 23:51:18;;;;;;;15.97;10.90;;;0.60;30.90;;;;;;10417726;28;20256;-71
2023/02/07 23:56:23;;;;;;;12.87;9.83;;;0.50;31.00;;;;;;10416049;28;20230;-70
